createdAt,value
2018-04-08T00:01:36.908Z,3.50
2018-04-08T00:04:05.477Z,3.97
2018-04-08T00:06:33.513Z,3.13
2018-04-08T00:09:01.378Z,4.10
2018-04-08T00:11:29.063Z,4.33
2018-04-08T00:13:58.748Z,4.43
2018-04-08T00:16:26.549Z,4.60
2018-04-08T00:18:54.324Z,3.80
2018-04-08T00:21:23.469Z,3.97
2018-04-08T00:23:51.392Z,4.07
2018-04-08T00:26:19.200Z,4.23
2018-04-08T00:28:47.066Z,3.80
2018-04-08T00:31:14.758Z,4.53
2018-04-08T00:33:43.308Z,4.87
2018-04-08T00:36:11.174Z,4.03
2018-04-08T00:38:40.006Z,3.17
2018-04-08T00:41:09.771Z,3.63
2018-04-08T00:43:37.523Z,3.50
2018-04-08T00:46:05.401Z,6.10
2018-04-08T00:48:34.843Z,4.50
2018-04-08T00:51:03.383Z,3.90
2018-04-08T00:53:31.249Z,5.70
2018-04-08T00:56:00.248Z,4.90
2018-04-08T00:58:28.152Z,5.43
2018-04-08T01:00:55.868Z,4.50
2018-04-08T01:03:23.404Z,3.27
2018-04-08T01:05:50.940Z,4.73
2018-04-08T01:08:18.451Z,3.80
2018-04-08T01:10:45.979Z,3.23
2018-04-08T01:13:15.198Z,4.00
2018-04-08T01:15:42.749Z,5.90
2018-04-08T01:18:12.268Z,5.33
2018-04-08T01:20:39.796Z,4.60
2018-04-08T01:23:08.085Z,7.30
2018-04-08T01:25:35.636Z,5.50
2018-04-08T01:28:03.165Z,6.27
2018-04-08T01:30:30.699Z,7.20
2018-04-08T01:32:58.221Z,6.43
2018-04-08T01:35:25.745Z,6.80
2018-04-08T01:37:54.032Z,6.63
2018-04-08T01:40:23.555Z,6.23
2018-04-08T01:42:51.080Z,6.37
2018-04-08T01:45:19.365Z,7.23
2018-04-08T01:47:47.657Z,6.20
2018-04-08T01:50:15.183Z,6.90
2018-04-08T01:52:45.420Z,6.97
2018-04-08T01:55:13.731Z,6.50
2018-04-08T01:57:41.250Z,7.50
2018-04-08T02:00:09.542Z,7.93
2018-04-08T02:02:37.999Z,5.47
2018-04-08T02:05:06.308Z,9.13
2018-04-08T02:07:33.864Z,6.13
2018-04-08T02:10:03.369Z,6.40
2018-04-08T02:12:30.895Z,5.73
2018-04-08T02:14:58.456Z,9.10
2018-04-08T02:17:26.748Z,7.07
2018-04-08T02:19:54.277Z,8.60
2018-04-08T02:22:23.740Z,6.97
2018-04-08T02:24:51.268Z,7.40
2018-04-08T02:27:18.818Z,6.47
2018-04-08T02:29:46.337Z,7.13
2018-04-08T02:32:15.370Z,15.03
2018-04-08T02:34:42.894Z,6.80
2018-04-08T02:37:10.435Z,8.47
2018-04-08T02:39:37.958Z,6.20
2018-04-08T02:42:05.485Z,10.70
2018-04-08T02:44:35.761Z,7.23
2018-04-08T02:47:03.278Z,6.90
2018-04-08T02:49:31.746Z,7.63
2018-04-08T02:52:00.037Z,6.13
2018-04-08T02:54:27.565Z,5.90
2018-04-08T02:56:55.100Z,6.13
2018-04-08T02:59:23.562Z,6.53
2018-04-08T03:01:51.089Z,6.10
2018-04-08T03:04:19.576Z,6.87
2018-04-08T03:06:47.106Z,5.87
2018-04-08T03:09:15.402Z,5.73
2018-04-08T03:11:42.969Z,6.70
2018-04-08T03:14:10.488Z,12.13
2018-04-08T03:16:38.021Z,8.43
2018-04-08T03:19:07.480Z,7.07
2018-04-08T03:21:35.918Z,9.10
2018-04-08T03:24:04.208Z,6.53
2018-04-08T03:26:32.534Z,8.23
2018-04-08T03:29:02.023Z,8.90
2018-04-08T03:31:29.542Z,9.50
2018-04-08T03:33:59.818Z,6.03
2018-04-08T03:36:27.337Z,9.27
2018-04-08T03:38:55.624Z,6.80
2018-04-08T03:41:23.147Z,5.37
2018-04-08T03:43:52.607Z,5.83
2018-04-08T03:46:20.132Z,7.50
2018-04-08T03:48:48.419Z,7.27
2018-04-08T03:51:15.937Z,6.13
2018-04-08T03:53:43.445Z,6.37
2018-04-08T03:56:10.961Z,9.63
2018-04-08T03:58:39.252Z,7.40
2018-04-08T04:01:07.553Z,7.13
2018-04-08T04:03:35.072Z,5.97
2018-04-08T04:06:03.356Z,6.10
2018-04-08T04:08:33.613Z,6.40
2018-04-08T04:11:01.129Z,8.03
2018-04-08T04:13:29.421Z,9.63
2018-04-08T04:15:56.941Z,7.13
2018-04-08T04:18:36.298Z,7.20
2018-04-08T04:21:16.425Z,7.00
2018-04-08T04:23:56.735Z,7.67
2018-04-08T04:26:31.129Z,7.43
2018-04-08T04:28:59.436Z,8.50
2018-04-08T04:31:27.933Z,9.50
2018-04-08T04:33:57.388Z,7.47
2018-04-08T04:36:25.678Z,6.73
2018-04-08T04:38:53.194Z,8.80
2018-04-08T04:41:20.721Z,7.33
2018-04-08T04:43:50.195Z,8.73
2018-04-08T04:46:18.628Z,7.03
2018-04-08T04:48:46.147Z,10.47
2018-04-08T04:51:13.672Z,7.30
2018-04-08T04:53:41.957Z,7.33
2018-04-08T04:56:10.231Z,7.07
2018-04-08T04:58:39.453Z,7.20
2018-04-08T05:01:06.978Z,6.00
2018-04-08T05:03:35.287Z,8.90
2018-04-08T05:06:02.804Z,8.73
2018-04-08T05:08:31.097Z,8.67
2018-04-08T05:10:58.612Z,8.23
2018-04-08T05:13:26.129Z,7.07
2018-04-08T05:15:53.679Z,8.20
2018-04-08T05:18:21.204Z,7.27
2018-04-08T05:20:49.501Z,7.70
2018-04-08T05:23:18.001Z,5.67
2018-04-08T05:25:45.533Z,7.60
2018-04-08T05:28:13.839Z,6.73
2018-04-08T05:30:41.370Z,7.10
2018-04-08T05:33:09.675Z,7.90
2018-04-08T05:35:37.200Z,6.53
2018-04-08T05:38:05.644Z,7.33
2018-04-08T05:40:33.945Z,7.30
2018-04-08T05:43:02.264Z,6.77
2018-04-08T05:45:29.781Z,6.03
2018-04-08T05:47:58.060Z,7.60
2018-04-08T05:50:26.348Z,6.70
2018-04-08T05:52:53.876Z,5.97
2018-04-08T05:55:21.384Z,6.50
2018-04-08T05:57:48.908Z,6.90
2018-04-08T06:00:17.209Z,7.57
2018-04-08T06:02:45.645Z,7.80
2018-04-08T06:05:14.092Z,7.17
2018-04-08T06:07:41.629Z,9.90
2018-04-08T06:10:11.185Z,6.57
2018-04-08T06:12:38.684Z,6.73
2018-04-08T06:15:06.223Z,6.87
2018-04-08T06:17:33.762Z,6.57
2018-04-08T06:20:03.236Z,6.93
2018-04-08T06:22:31.696Z,7.40
2018-04-08T06:24:59.223Z,7.63
2018-04-08T06:27:26.749Z,7.47
2018-04-08T06:29:55.196Z,10.43
2018-04-08T06:32:22.772Z,7.17
2018-04-08T06:34:51.468Z,6.90
2018-04-08T06:37:19.029Z,8.57
2018-04-08T06:39:46.550Z,7.00
2018-04-08T06:42:14.072Z,7.17
2018-04-08T06:44:41.614Z,8.00
2018-04-08T06:47:09.909Z,9.03
2018-04-08T06:49:37.427Z,7.77
2018-04-08T06:52:05.729Z,8.40
2018-04-08T06:54:34.952Z,6.43
2018-04-08T06:57:04.427Z,7.47
2018-04-08T06:59:32.727Z,7.53
2018-04-08T07:02:00.240Z,5.60
2018-04-08T07:04:27.760Z,7.87
2018-04-08T07:06:55.286Z,7.30
2018-04-08T07:09:23.581Z,6.23
2018-04-08T07:11:52.072Z,6.90
2018-04-08T07:14:19.592Z,6.17
2018-04-08T07:16:49.844Z,7.33
2018-04-08T07:19:17.377Z,7.50
2018-04-08T07:21:45.670Z,8.67
2018-04-08T07:24:13.200Z,6.40
2018-04-08T07:26:41.508Z,6.83
2018-04-08T07:29:09.034Z,6.63
2018-04-08T07:31:37.317Z,10.00
2018-04-08T07:34:05.619Z,12.33
2018-04-08T07:36:34.053Z,6.63
2018-04-08T07:39:01.584Z,8.40
2018-04-08T07:41:29.116Z,6.70
2018-04-08T07:43:56.641Z,7.00
2018-04-08T07:46:24.925Z,6.13
2018-04-08T07:48:52.496Z,5.73
2018-04-08T07:51:21.969Z,6.43
2018-04-08T07:53:51.217Z,6.33
2018-04-08T07:56:18.745Z,6.23
2018-04-08T07:58:46.270Z,5.90
2018-04-08T08:01:13.824Z,5.97
2018-04-08T08:03:43.296Z,6.57
2018-04-08T08:06:11.761Z,7.03
2018-04-08T08:08:41.281Z,5.30
2018-04-08T08:11:08.802Z,5.67
2018-04-08T08:13:36.324Z,5.70
2018-04-08T08:16:05.818Z,5.63
2018-04-08T08:18:33.345Z,6.10
2018-04-08T08:21:00.877Z,9.03
2018-04-08T08:23:28.397Z,5.63
2018-04-08T08:25:55.917Z,5.40
2018-04-08T08:28:23.429Z,7.13
2018-04-08T08:30:51.720Z,5.20
2018-04-08T08:33:20.018Z,7.10
2018-04-08T08:35:47.544Z,5.60
2018-04-08T08:38:16.798Z,5.30
2018-04-08T08:40:44.317Z,5.70
2018-04-08T08:43:11.845Z,6.00
2018-04-08T08:45:39.356Z,5.90
2018-04-08T08:48:06.877Z,5.80
2018-04-08T08:50:34.403Z,5.47
2018-04-08T08:53:03.438Z,5.70
2018-04-08T08:55:30.957Z,7.63
2018-04-08T08:57:59.271Z,6.70
2018-04-08T09:00:26.782Z,7.43
2018-04-08T09:02:54.292Z,5.07
2018-04-08T09:05:22.742Z,4.93
2018-04-08T09:07:51.033Z,5.60
2018-04-08T09:10:18.556Z,5.43
2018-04-08T09:15:19.873Z,6.03
2018-04-08T09:17:47.416Z,5.50
2018-04-08T09:20:26.696Z,5.33
2018-04-08T09:25:59.951Z,6.07
2018-04-08T09:28:27.468Z,6.80
2018-04-08T09:30:54.988Z,6.77
2018-04-08T09:33:22.542Z,5.50
2018-04-08T09:35:50.148Z,5.90
2018-04-08T09:38:17.668Z,5.27
2018-04-08T09:40:45.184Z,6.37
2018-04-08T09:43:13.472Z,5.80
2018-04-08T09:45:41.787Z,6.00
2018-04-08T09:48:09.308Z,5.40
2018-04-08T09:50:36.845Z,5.00
2018-04-08T09:53:05.169Z,4.70
2018-04-08T09:55:32.696Z,6.27
2018-04-08T10:01:20.433Z,5.60
2018-04-08T10:03:48.723Z,5.43
2018-04-08T10:06:17.193Z,6.07
2018-04-08T10:08:45.497Z,5.37
2018-04-08T10:11:13.021Z,6.27
2018-04-08T10:13:41.321Z,7.90
2018-04-08T10:16:09.180Z,5.90
2018-04-08T10:18:36.693Z,5.70
2018-04-08T10:21:06.164Z,7.40
2018-04-08T10:23:33.706Z,5.50
2018-04-08T10:26:01.233Z,8.60
2018-04-08T10:28:31.469Z,6.07
2018-04-08T10:31:00.701Z,9.23
2018-04-08T10:33:28.218Z,6.87
2018-04-08T10:35:56.512Z,6.57
2018-04-08T10:38:24.985Z,6.80
2018-04-08T10:40:54.459Z,8.30
2018-04-08T10:43:21.991Z,10.97
2018-04-08T10:45:49.522Z,6.90
2018-04-08T10:48:19.018Z,9.50
2018-04-08T10:50:46.542Z,13.00
2018-04-08T10:53:14.825Z,8.10
2018-04-08T10:55:45.038Z,7.50
2018-04-08T10:58:14.282Z,8.70
2018-04-08T11:00:41.797Z,8.50
2018-04-08T11:03:10.107Z,14.57
2018-04-08T11:05:37.629Z,14.23
2018-04-08T11:08:05.922Z,9.17
2018-04-08T11:10:33.449Z,13.70
2018-04-08T11:13:00.968Z,12.47
2018-04-08T11:15:28.485Z,11.00
2018-04-08T11:17:56.773Z,11.20
2018-04-08T11:20:24.295Z,9.57
2018-04-08T11:22:51.837Z,11.20
2018-04-08T11:25:19.368Z,10.03
2018-04-08T11:27:46.897Z,16.57
2018-04-08T11:30:15.188Z,10.13
2018-04-08T11:32:44.696Z,12.50
2018-04-08T11:35:12.214Z,11.83
2018-04-08T11:37:40.548Z,12.43
2018-04-08T11:40:08.068Z,17.00
2018-04-08T11:42:35.606Z,16.87
2018-04-08T11:45:03.900Z,16.33
2018-04-08T11:47:32.192Z,17.97
2018-04-08T11:49:59.746Z,15.20
2018-04-08T11:52:27.279Z,22.83
2018-04-08T11:54:54.823Z,12.93
2018-04-08T11:57:23.668Z,21.90
2018-04-08T11:59:52.198Z,14.83
2018-04-08T12:02:20.514Z,15.83
2018-04-08T12:04:48.054Z,15.50
2018-04-08T12:07:15.622Z,14.27
2018-04-08T12:09:43.148Z,13.77
2018-04-08T12:12:11.445Z,16.40
2018-04-08T12:14:39.055Z,14.63
2018-04-08T12:17:06.598Z,13.80
2018-04-08T12:19:34.326Z,17.07
2018-04-08T12:22:01.850Z,16.23
2018-04-08T12:24:30.385Z,17.90
2018-04-08T12:26:58.845Z,17.57
2018-04-08T12:29:26.393Z,14.40
2018-04-08T12:31:54.758Z,12.13
2018-04-08T12:34:23.606Z,15.90
2018-04-08T12:36:51.513Z,13.20
2018-04-08T12:39:19.286Z,16.37
2018-04-08T12:41:47.072Z,12.17
2018-04-08T12:44:15.407Z,12.63
2018-04-08T12:46:43.958Z,11.50
2018-04-08T12:49:11.616Z,12.00
2018-04-08T12:51:39.974Z,14.27
2018-04-08T12:54:08.069Z,13.53
2018-04-08T12:56:36.932Z,13.50
2018-04-08T12:59:06.077Z,13.63
2018-04-08T13:01:34.580Z,15.13
2018-04-08T13:04:03.392Z,14.50
2018-04-08T13:06:31.295Z,10.70
2018-04-08T13:09:00.699Z,10.40
2018-04-08T13:11:29.226Z,13.93
2018-04-08T13:13:56.824Z,15.50
2018-04-08T13:16:25.421Z,12.23
2018-04-08T13:18:53.795Z,11.00
2018-04-08T13:21:21.729Z,12.10
2018-04-08T13:23:50.497Z,9.63
2018-04-08T13:26:19.304Z,11.20
2018-04-08T13:28:46.901Z,10.90
2018-04-08T13:31:14.440Z,10.10
2018-04-08T13:33:42.733Z,11.03
2018-04-08T13:36:10.278Z,10.63
2018-04-08T13:38:37.813Z,10.43
2018-04-08T13:41:05.332Z,13.60
2018-04-08T13:43:33.623Z,10.87
2018-04-08T13:46:01.142Z,9.37
2018-04-08T13:48:30.172Z,10.70
2018-04-08T13:50:58.456Z,9.67
2018-04-08T13:53:25.973Z,9.47
2018-04-08T13:55:54.540Z,8.43
2018-04-08T13:58:23.088Z,8.50
2018-04-08T14:00:51.926Z,8.40
2018-04-08T14:03:19.843Z,10.03
2018-04-08T14:05:47.710Z,8.83
2018-04-08T14:08:16.404Z,8.10
2018-04-08T14:10:43.940Z,13.87
2018-04-08T14:13:11.467Z,8.43
2018-04-08T14:15:40.989Z,8.50
2018-04-08T14:18:08.928Z,6.87
2018-04-08T14:20:36.849Z,8.67
2018-04-08T14:23:04.716Z,9.03
2018-04-08T14:25:32.578Z,10.17
2018-04-08T14:28:00.245Z,9.70
2018-04-08T14:30:28.761Z,10.30
2018-04-08T14:32:56.324Z,6.87
2018-04-08T14:35:23.881Z,8.27
2018-04-08T14:37:51.408Z,8.30
2018-04-08T14:40:18.940Z,7.47
2018-04-08T14:42:46.446Z,7.73
2018-04-08T14:45:13.980Z,7.47
2018-04-08T14:47:41.509Z,6.80
2018-04-08T14:50:11.024Z,6.60
2018-04-08T14:52:38.576Z,6.50
2018-04-08T14:55:06.095Z,9.23
2018-04-08T14:57:33.629Z,6.27
2018-04-08T15:00:02.079Z,5.97
2018-04-08T15:02:29.601Z,6.43
2018-04-08T15:04:57.884Z,5.90
2018-04-08T15:07:26.181Z,5.83
2018-04-08T15:09:53.707Z,6.23
2018-04-08T15:12:22.077Z,5.80
2018-04-08T15:14:50.514Z,7.67
2018-04-08T15:17:18.055Z,6.60
2018-04-08T15:19:45.574Z,6.87
2018-04-08T15:22:13.864Z,5.83
2018-04-08T15:24:42.153Z,5.90
2018-04-08T15:27:09.682Z,5.63
2018-04-08T15:29:37.960Z,7.20
2018-04-08T15:32:06.259Z,6.00
2018-04-08T15:34:33.794Z,6.40
2018-04-08T15:37:02.107Z,8.40
2018-04-08T15:39:29.625Z,8.83
2018-04-08T15:41:58.866Z,7.80
2018-04-08T15:44:26.393Z,8.60
2018-04-08T15:46:54.697Z,9.50
2018-04-08T15:49:22.224Z,8.27
2018-04-08T15:51:49.777Z,7.37
2018-04-08T15:54:18.069Z,7.77
2018-04-08T15:56:45.588Z,6.70
2018-04-08T15:59:14.629Z,9.33
2018-04-08T16:01:42.150Z,7.40
2018-04-08T16:04:09.675Z,7.57
2018-04-08T16:06:37.198Z,7.60
2018-04-08T16:09:05.568Z,12.03
2018-04-08T16:11:33.093Z,8.33
2018-04-08T16:14:01.547Z,9.60
2018-04-08T16:16:29.065Z,6.50
2018-04-08T16:18:56.598Z,6.97
2018-04-08T16:21:24.880Z,6.43
2018-04-08T16:23:54.137Z,7.33
2018-04-08T16:26:21.666Z,6.50
2018-04-08T16:28:49.184Z,5.83
2018-04-08T16:31:17.565Z,7.37
2018-04-08T16:33:45.849Z,7.10
2018-04-08T16:36:14.137Z,6.00
2018-04-08T16:38:41.666Z,9.03
2018-04-08T16:41:09.213Z,6.17
2018-04-08T16:43:36.765Z,5.17
2018-04-08T16:46:04.292Z,8.17
2018-04-08T16:48:31.810Z,6.03
2018-04-08T16:51:00.120Z,6.67
2018-04-08T16:53:27.657Z,6.70
2018-04-08T16:55:56.102Z,6.37
2018-04-08T16:58:23.621Z,5.93
2018-04-08T17:00:51.173Z,5.70
2018-04-08T17:03:18.692Z,6.57
2018-04-08T17:05:47.014Z,6.77
2018-04-08T17:08:16.492Z,7.97
2018-04-08T17:10:46.006Z,5.70
2018-04-08T17:13:13.545Z,6.60
2018-04-08T17:15:41.076Z,7.70
2018-04-08T17:18:08.613Z,7.20
2018-04-08T17:20:36.138Z,7.43
2018-04-08T17:23:03.674Z,7.73
2018-04-08T17:25:31.222Z,5.97
2018-04-08T17:27:59.512Z,7.30
2018-04-08T17:30:27.031Z,5.30
2018-04-08T17:32:57.322Z,5.10
2018-04-08T17:35:24.852Z,6.10
2018-04-08T17:37:52.381Z,5.00
2018-04-08T17:40:20.683Z,7.97
2018-04-08T17:42:48.242Z,5.33
2018-04-08T17:45:15.760Z,5.57
2018-04-08T17:47:43.281Z,13.23
2018-04-08T17:50:10.801Z,11.73
2018-04-08T17:52:39.106Z,6.30
2018-04-08T17:55:06.681Z,7.13
2018-04-08T17:57:34.192Z,5.43
2018-04-08T18:00:02.490Z,7.50
2018-04-08T18:02:30.982Z,5.93
2018-04-08T18:04:58.508Z,4.30
2018-04-08T18:07:26.795Z,5.70
2018-04-08T18:09:54.298Z,5.80
2018-04-08T18:12:21.822Z,6.13
2018-04-08T18:14:49.343Z,5.87
2018-04-08T18:17:17.632Z,6.87
2018-04-08T18:19:45.901Z,4.80
2018-04-08T18:22:14.200Z,6.40
2018-04-08T18:24:41.777Z,5.27
2018-04-08T18:27:11.277Z,6.77
2018-04-08T18:29:38.783Z,5.30
2018-04-08T18:32:07.073Z,5.97
2018-04-08T18:34:36.276Z,8.33
2018-04-08T18:37:03.802Z,5.20
2018-04-08T18:39:32.811Z,4.30
2018-04-08T18:42:01.127Z,5.50
2018-04-08T18:44:28.644Z,7.03
2018-04-08T18:46:56.921Z,7.67
2018-04-08T18:49:25.230Z,5.50
2018-04-08T18:51:52.729Z,4.97
2018-04-08T18:54:21.027Z,6.80
2018-04-08T18:56:49.292Z,4.93
2018-04-08T18:59:16.813Z,6.40
2018-04-08T19:01:44.336Z,5.87
2018-04-08T19:04:11.834Z,4.90
2018-04-08T19:06:39.357Z,5.03
2018-04-08T19:09:06.863Z,6.50
2018-04-08T19:11:34.365Z,6.20
2018-04-08T19:14:02.872Z,5.20
2018-04-08T19:16:30.388Z,4.90
2018-04-08T19:18:58.687Z,5.87
2018-04-08T19:21:26.208Z,6.40
2018-04-08T19:23:56.457Z,7.60
2018-04-08T19:26:23.961Z,5.33
2018-04-08T19:28:51.525Z,7.40
2018-04-08T19:31:19.025Z,6.10
2018-04-08T19:33:46.545Z,5.60
2018-04-08T19:36:14.066Z,5.90
2018-04-08T19:38:41.593Z,6.37
2018-04-08T19:41:09.123Z,6.23
2018-04-08T19:43:37.404Z,4.50
2018-04-08T19:46:04.925Z,7.80
2018-04-08T19:48:32.423Z,6.37
2018-04-08T19:51:00.684Z,8.60
2018-04-08T19:53:28.196Z,6.70
2018-04-08T19:55:55.736Z,5.60
2018-04-08T19:58:23.463Z,5.33
2018-04-08T20:00:51.947Z,5.90
2018-04-08T20:03:20.581Z,5.90
2018-04-08T20:05:48.277Z,6.57
2018-04-08T20:08:15.801Z,6.03
2018-04-08T20:10:43.765Z,5.13
2018-04-08T20:13:12.754Z,5.47
2018-04-08T20:15:40.623Z,6.90
2018-04-08T20:18:08.379Z,5.63
2018-04-08T20:20:36.041Z,7.40
2018-04-08T20:23:03.892Z,5.50
2018-04-08T20:25:31.523Z,8.13
2018-04-08T20:28:00.079Z,5.87
2018-04-08T20:30:27.815Z,6.53
2018-04-08T20:32:55.460Z,7.40
2018-04-08T20:35:23.234Z,7.90
2018-04-08T20:37:50.815Z,6.40
2018-04-08T20:40:18.348Z,6.23
2018-04-08T20:42:45.853Z,7.43
2018-04-08T20:45:14.860Z,6.90
2018-04-08T20:47:43.161Z,5.90
2018-04-08T20:50:10.689Z,4.83
2018-04-08T20:52:38.178Z,6.63
2018-04-08T20:55:05.891Z,5.13
2018-04-08T20:57:34.170Z,5.43
2018-04-08T21:00:03.938Z,5.93
2018-04-08T21:02:31.548Z,6.33
2018-04-08T21:04:59.901Z,5.40
2018-04-08T21:07:28.723Z,6.10
2018-04-08T21:09:56.523Z,4.20
2018-04-08T21:12:24.428Z,6.27
2018-04-08T21:14:52.881Z,6.03
2018-04-08T21:17:20.489Z,8.00
2018-04-08T21:19:48.851Z,6.93
2018-04-08T21:22:16.669Z,4.97
2018-04-08T21:24:44.424Z,6.87
2018-04-08T21:27:12.299Z,5.20
2018-04-08T21:29:40.164Z,10.20
2018-04-08T21:32:09.564Z,4.60
2018-04-08T21:34:38.490Z,5.23
2018-04-08T21:37:06.001Z,8.30
2018-04-08T21:39:33.505Z,8.33
2018-04-08T21:42:01.129Z,5.33
2018-04-08T21:44:28.900Z,6.03
2018-04-08T21:46:56.431Z,4.90
2018-04-08T21:49:23.932Z,6.47
2018-04-08T21:51:52.406Z,5.17
2018-04-08T21:54:19.908Z,4.83
2018-04-08T21:56:48.772Z,4.73
2018-04-08T21:59:16.560Z,4.23
2018-04-08T22:01:44.008Z,8.40
2018-04-08T22:04:11.610Z,5.20
2018-04-08T22:06:39.489Z,4.83
2018-04-08T22:09:07.175Z,4.27
2018-04-08T22:11:35.922Z,6.27
2018-04-08T22:14:03.658Z,4.67
2018-04-08T22:16:31.213Z,5.03
2018-04-08T22:18:59.489Z,5.10
2018-04-08T22:21:27.780Z,5.13
2018-04-08T22:23:55.311Z,5.43
2018-04-08T22:26:23.608Z,4.43
2018-04-08T22:28:52.081Z,4.27
2018-04-08T22:31:20.367Z,5.93
2018-04-08T22:33:47.860Z,4.23
2018-04-08T22:36:15.378Z,4.40
2018-04-08T22:38:42.889Z,10.00
2018-04-08T22:41:10.397Z,6.27
2018-04-08T22:43:37.925Z,5.57
2018-04-08T22:46:05.431Z,4.23
2018-04-08T22:48:33.287Z,5.23
2018-04-08T22:51:00.842Z,7.47
2018-04-08T22:53:28.483Z,5.50
2018-04-08T22:55:56.374Z,5.40
2018-04-08T22:58:25.029Z,5.10
2018-04-08T23:00:53.846Z,4.80
2018-04-08T23:03:21.665Z,4.27
2018-04-08T23:05:51.419Z,4.30
2018-04-08T23:08:19.185Z,5.10
2018-04-08T23:10:46.946Z,5.00
2018-04-08T23:13:14.704Z,5.40
2018-04-08T23:15:42.460Z,4.37
2018-04-08T23:18:09.981Z,5.40
2018-04-08T23:20:37.480Z,5.10
2018-04-08T23:23:05.002Z,5.10
2018-04-08T23:25:34.232Z,5.23
2018-04-08T23:28:01.758Z,5.33
2018-04-08T23:30:30.037Z,4.30
2018-04-08T23:32:58.338Z,5.63
2018-04-08T23:35:25.841Z,4.30
2018-04-08T23:37:53.347Z,4.70
2018-04-08T23:40:20.881Z,7.67
2018-04-08T23:42:49.167Z,8.67
2018-04-08T23:45:17.454Z,48.20
2018-04-08T23:47:44.958Z,18.20
2018-04-08T23:50:12.491Z,9.73
2018-04-08T23:52:40.005Z,16.67
2018-04-08T23:55:08.310Z,15.63
2018-04-08T23:57:35.809Z,7.50
